createdAt,value
2018-06-14T00:02:37.274Z,96.70
2018-06-14T00:05:42.596Z,96.70
2018-06-14T00:08:49.522Z,96.90
2018-06-14T00:11:58.854Z,97.30
2018-06-14T00:15:03.855Z,96.80
2018-06-14T00:18:17.149Z,97.00
2018-06-14T00:21:32.027Z,95.70
2018-06-14T00:24:37.007Z,96.20
2018-06-14T00:27:42.781Z,97.60
2018-06-14T00:30:48.889Z,96.70
2018-06-14T00:34:02.534Z,97.50
2018-06-14T00:37:07.374Z,97.00
2018-06-14T00:40:12.356Z,96.10
2018-06-14T00:43:19.921Z,96.60
2018-06-14T00:46:31.012Z,97.50
2018-06-14T00:49:36.032Z,97.50
2018-06-14T00:52:41.263Z,97.10
2018-06-14T00:55:46.679Z,97.00
2018-06-14T00:58:56.325Z,97.40
2018-06-14T01:02:01.103Z,97.30
2018-06-14T01:05:05.774Z,97.00
2018-06-14T01:08:10.644Z,97.40
2018-06-14T01:11:17.151Z,98.00
2018-06-14T01:14:30.913Z,97.10
2018-06-14T01:17:35.549Z,97.70
2018-06-14T01:20:40.221Z,97.70
2018-06-14T01:23:44.912Z,97.90
2018-06-14T01:27:05.659Z,97.70
2018-06-14T01:30:10.368Z,97.90
2018-06-14T01:33:15.203Z,97.80
2018-06-14T01:36:27.884Z,97.70
2018-06-14T01:39:32.542Z,97.80
2018-06-14T01:42:40.697Z,97.80
2018-06-14T01:45:45.430Z,97.50
2018-06-14T01:48:50.515Z,98.60
2018-06-14T01:51:56.317Z,98.20
2018-06-14T01:55:01.389Z,98.30
2018-06-14T01:58:06.216Z,97.70
2018-06-14T02:01:10.806Z,98.30
2018-06-14T02:04:15.420Z,98.90
2018-06-14T02:07:23.061Z,99.20
2018-06-14T02:10:29.549Z,99.00
2018-06-14T02:13:37.595Z,98.60
2018-06-14T02:16:42.380Z,99.00
2018-06-14T02:19:48.481Z,99.20
2018-06-14T02:22:55.314Z,98.80
2018-06-14T02:26:01.130Z,98.60
2018-06-14T02:29:05.958Z,99.10
2018-06-14T02:32:10.546Z,98.30
2018-06-14T02:35:15.420Z,98.90
2018-06-14T02:38:22.303Z,98.90
2018-06-14T02:41:27.026Z,99.70
2018-06-14T02:44:31.718Z,98.90
2018-06-14T02:47:36.337Z,98.70
2018-06-14T02:50:40.953Z,99.10
2018-06-14T02:53:48.364Z,99.80
2018-06-14T02:56:58.000Z,99.70
2018-06-14T03:00:02.662Z,99.30
2018-06-14T03:03:07.430Z,99.80
2018-06-14T03:06:12.002Z,99.80
2018-06-14T03:09:17.483Z,99.50
2018-06-14T03:12:25.782Z,99.90
2018-06-14T03:15:31.635Z,99.40
2018-06-14T03:18:41.958Z,99.60
2018-06-14T03:22:03.318Z,99.60
2018-06-14T03:25:08.051Z,99.80
2018-06-14T03:28:13.187Z,99.90
2018-06-14T03:31:18.804Z,99.90
2018-06-14T03:37:33.829Z,99.90
2018-06-14T03:40:44.315Z,99.60
2018-06-14T03:43:50.873Z,99.90
2018-06-14T03:46:58.109Z,99.90
2018-06-14T03:50:02.960Z,99.80
2018-06-14T03:53:11.727Z,99.80
2018-06-14T03:56:20.919Z,99.90
2018-06-14T03:59:31.102Z,99.90
2018-06-14T04:02:35.961Z,99.90
2018-06-14T04:05:40.519Z,99.90
2018-06-14T04:08:45.140Z,99.90
2018-06-14T04:11:53.561Z,99.90
2018-06-14T04:15:01.821Z,99.90
2018-06-14T04:18:06.359Z,99.90
2018-06-14T04:21:11.013Z,99.90
2018-06-14T04:24:18.068Z,99.90
2018-06-14T04:27:31.919Z,99.90
2018-06-14T04:30:36.490Z,99.90
2018-06-14T04:33:41.074Z,99.60
2018-06-14T04:36:46.122Z,99.90
2018-06-14T04:39:55.165Z,99.90
2018-06-14T04:42:59.797Z,99.90
2018-06-14T04:46:04.451Z,99.50
2018-06-14T04:49:09.874Z,99.30
2018-06-14T04:52:14.456Z,99.90
2018-06-14T04:58:35.020Z,99.00
2018-06-14T05:01:39.739Z,98.50
2018-06-14T05:04:44.572Z,97.90
2018-06-14T05:08:01.347Z,97.80
2018-06-14T05:11:06.009Z,97.90
2018-06-14T05:14:11.019Z,97.80
2018-06-14T05:17:17.506Z,97.30
2018-06-14T05:20:26.120Z,97.20
2018-06-14T05:23:33.794Z,97.50
2018-06-14T05:26:38.494Z,96.80
2018-06-14T05:29:43.183Z,97.30
2018-06-14T05:32:56.630Z,96.90
2018-06-14T05:36:03.147Z,96.30
2018-06-14T05:39:10.940Z,94.80
2018-06-14T05:42:16.710Z,94.30
2018-06-14T05:45:25.017Z,94.20
2018-06-14T05:48:30.120Z,93.90
2018-06-14T05:51:35.159Z,92.50
2018-06-14T05:54:39.825Z,92.20
2018-06-14T05:57:45.992Z,92.50
2018-06-14T06:00:59.547Z,91.80
2018-06-14T06:04:04.336Z,91.30
2018-06-14T06:07:08.986Z,87.40
2018-06-14T06:10:18.927Z,79.70
2018-06-14T06:13:38.690Z,74.70
2018-06-14T06:16:43.192Z,70.80
2018-06-14T06:19:48.201Z,67.90
2018-06-14T06:22:52.798Z,64.60
2018-06-14T06:25:58.812Z,61.60
2018-06-14T06:29:04.049Z,61.00
2018-06-14T06:32:08.784Z,58.60
2018-06-14T06:35:13.270Z,59.80
2018-06-14T06:38:20.960Z,55.70
2018-06-14T06:41:25.639Z,58.50
2018-06-14T06:44:33.171Z,56.90
2018-06-14T06:47:37.679Z,53.60
2018-06-14T06:50:45.084Z,47.70
2018-06-14T06:53:49.918Z,43.70
2018-06-14T06:56:54.523Z,44.00
2018-06-14T06:59:59.399Z,42.90
2018-06-14T07:03:03.979Z,42.80
2018-06-14T07:06:08.805Z,43.00
2018-06-14T07:09:13.547Z,43.40
2018-06-14T07:12:18.128Z,44.10
2018-06-14T07:15:22.446Z,49.00
2018-06-14T07:18:26.766Z,54.30
2018-06-14T07:21:35.190Z,49.40
2018-06-14T07:24:42.770Z,49.10
2018-06-14T07:27:51.257Z,52.50
2018-06-14T07:30:58.019Z,52.60
2018-06-14T07:34:04.071Z,52.80
2018-06-14T07:37:10.736Z,52.20
2018-06-14T07:40:19.948Z,49.40
2018-06-14T07:43:24.207Z,48.60
2018-06-14T07:46:34.577Z,51.50
2018-06-14T07:49:38.782Z,54.40
2018-06-14T07:52:44.938Z,58.10
2018-06-14T07:55:51.626Z,58.80
2018-06-14T07:58:59.408Z,60.60
2018-06-14T08:02:04.417Z,60.50
2018-06-14T08:05:08.837Z,61.20
2018-06-14T08:08:13.805Z,58.80
2018-06-14T08:11:21.264Z,59.00
2018-06-14T08:14:26.177Z,60.00
2018-06-14T08:17:31.385Z,60.60
2018-06-14T08:20:36.000Z,60.00
2018-06-14T08:23:43.744Z,60.80
2018-06-14T08:26:50.958Z,64.30
2018-06-14T08:29:56.446Z,62.70
2018-06-14T08:33:02.576Z,62.00
2018-06-14T08:36:09.773Z,61.20
2018-06-14T08:39:14.660Z,54.60
2018-06-14T08:42:30.745Z,52.80
2018-06-14T08:45:35.688Z,53.50
2018-06-14T08:48:40.656Z,56.70
2018-06-14T08:51:46.157Z,57.60
2018-06-14T08:54:51.237Z,58.70
2018-06-14T08:57:56.235Z,54.40
2018-06-14T09:01:03.480Z,56.60
2018-06-14T09:04:08.389Z,54.60
2018-06-14T09:07:13.307Z,53.50
2018-06-14T09:10:19.111Z,49.20
2018-06-14T09:13:27.251Z,48.80
2018-06-14T09:16:47.587Z,45.50
2018-06-14T09:19:51.832Z,43.60
2018-06-14T09:22:57.509Z,42.50
2018-06-14T09:26:03.666Z,44.00
2018-06-14T09:29:17.566Z,44.10
2018-06-14T09:35:27.399Z,39.80
2018-06-14T09:41:40.991Z,41.20
2018-06-14T09:44:45.963Z,39.10
2018-06-14T09:47:55.436Z,40.30
2018-06-14T09:51:02.070Z,38.50
2018-06-14T09:54:07.100Z,39.10
2018-06-14T09:57:11.435Z,38.50
2018-06-14T10:00:16.214Z,38.00
2018-06-14T10:03:21.807Z,40.20
2018-06-14T10:06:28.065Z,37.80
2018-06-14T10:09:37.554Z,37.80
2018-06-14T10:12:47.608Z,41.80
2018-06-14T10:15:54.785Z,41.10
2018-06-14T10:19:04.124Z,40.00
2018-06-14T10:22:12.139Z,40.10
2018-06-14T10:25:18.371Z,42.00
2018-06-14T10:28:27.336Z,42.80
2018-06-14T10:31:34.488Z,42.10
2018-06-14T10:34:45.177Z,43.60
2018-06-14T10:37:50.182Z,44.30
2018-06-14T10:40:55.061Z,41.90
2018-06-14T10:44:00.499Z,40.10
2018-06-14T10:47:05.718Z,42.20
2018-06-14T10:50:10.441Z,42.40
2018-06-14T10:53:15.080Z,39.90
2018-06-14T10:56:22.752Z,40.00
2018-06-14T10:59:27.195Z,43.60
2018-06-14T11:02:32.028Z,42.20
2018-06-14T11:05:36.640Z,44.00
2018-06-14T11:08:42.199Z,42.10
2018-06-14T11:11:46.786Z,42.10
2018-06-14T11:14:51.528Z,41.30
2018-06-14T11:17:56.078Z,42.70
2018-06-14T11:21:01.430Z,44.30
2018-06-14T11:24:06.644Z,43.80
2018-06-14T11:27:11.824Z,46.60
2018-06-14T11:30:17.399Z,47.60
2018-06-14T11:33:21.921Z,47.10
2018-06-14T11:36:27.652Z,48.10
2018-06-14T11:42:41.824Z,49.60
2018-06-14T11:45:52.908Z,46.50
2018-06-14T11:48:58.090Z,47.10
2018-06-14T11:52:02.714Z,46.50
2018-06-14T11:55:07.583Z,47.60
2018-06-14T11:58:13.089Z,51.00
2018-06-14T12:01:18.202Z,51.00
2018-06-14T12:04:22.476Z,50.70
2018-06-14T12:07:28.656Z,52.10
2018-06-14T12:10:34.248Z,50.60
2018-06-14T12:13:38.837Z,51.90
2018-06-14T12:16:43.299Z,50.90
2018-06-14T12:19:47.623Z,49.50
2018-06-14T12:22:52.369Z,48.60
2018-06-14T12:25:56.994Z,52.30
2018-06-14T12:29:02.440Z,52.00
2018-06-14T12:32:09.926Z,51.30
2018-06-14T12:35:14.394Z,52.80
2018-06-14T12:38:21.144Z,51.60
2018-06-14T12:41:26.066Z,49.80
2018-06-14T12:44:30.366Z,50.30
2018-06-14T12:47:35.244Z,51.70
2018-06-14T12:50:39.573Z,51.90
2018-06-14T12:53:44.928Z,51.10
2018-06-14T12:56:49.560Z,52.80
2018-06-14T12:59:54.686Z,53.10
2018-06-14T13:02:59.103Z,52.60
2018-06-14T13:06:03.557Z,51.60
2018-06-14T13:09:10.723Z,50.30
2018-06-14T13:12:14.898Z,51.40
2018-06-14T13:15:20.557Z,51.40
2018-06-14T13:18:25.003Z,52.30
2018-06-14T13:21:29.536Z,52.20
2018-06-14T13:24:41.401Z,51.00
2018-06-14T13:27:45.915Z,53.00
2018-06-14T13:30:50.439Z,54.20
2018-06-14T13:33:55.962Z,52.20
2018-06-14T13:37:00.459Z,52.20
2018-06-14T13:40:05.149Z,52.00
2018-06-14T13:43:24.523Z,53.30
2018-06-14T13:46:29.184Z,53.70
2018-06-14T13:49:35.349Z,54.20
2018-06-14T13:52:40.256Z,54.60
2018-06-14T13:55:44.796Z,54.70
2018-06-14T13:58:50.144Z,53.50
2018-06-14T14:01:55.988Z,53.70
2018-06-14T14:05:02.835Z,53.30
2018-06-14T14:08:07.197Z,52.70
2018-06-14T14:11:12.762Z,52.80
2018-06-14T14:17:21.837Z,53.30
2018-06-14T14:20:27.262Z,53.40
2018-06-14T14:23:33.650Z,53.90
2018-06-14T14:26:38.012Z,54.50
2018-06-14T14:29:43.641Z,54.20
2018-06-14T14:33:00.420Z,53.10
2018-06-14T14:36:05.054Z,53.10
2018-06-14T14:39:12.329Z,53.50
2018-06-14T14:42:16.869Z,54.60
2018-06-14T14:45:22.279Z,55.10
2018-06-14T14:48:33.179Z,54.60
2018-06-14T14:51:39.798Z,55.60
2018-06-14T15:01:13.680Z,54.90
2018-06-14T15:04:18.968Z,56.00
2018-06-14T15:11:01.103Z,56.20
2018-06-14T15:14:15.254Z,57.00
2018-06-14T15:17:19.757Z,57.10
2018-06-14T15:20:38.192Z,55.60
2018-06-14T15:23:46.408Z,57.00
2018-06-14T15:26:58.972Z,56.40
2018-06-14T15:30:03.452Z,56.60
2018-06-14T15:33:08.392Z,57.80
2018-06-14T15:36:12.620Z,57.90
2018-06-14T15:39:16.969Z,58.40
2018-06-14T15:42:21.208Z,58.60
2018-06-14T15:45:25.534Z,57.90
2018-06-14T15:48:30.676Z,58.00
2018-06-14T15:51:35.035Z,57.60
2018-06-14T15:54:39.826Z,58.20
2018-06-14T15:57:44.253Z,59.40
2018-06-14T16:00:48.645Z,58.80
2018-06-14T16:03:52.901Z,59.20
2018-06-14T16:10:04.363Z,59.10
2018-06-14T16:13:09.041Z,58.70
2018-06-14T16:16:14.023Z,58.70
2018-06-14T16:19:19.445Z,60.20
2018-06-14T16:25:58.331Z,61.40
2018-06-14T16:29:02.686Z,60.60
2018-06-14T16:32:07.324Z,62.30
2018-06-14T16:35:11.602Z,61.10
2018-06-14T16:38:16.557Z,61.60
2018-06-14T16:41:20.925Z,62.20
2018-06-14T16:44:25.290Z,60.90
2018-06-14T16:47:31.801Z,59.80
2018-06-14T16:50:38.959Z,60.00
2018-06-14T16:53:43.284Z,62.40
2018-06-14T16:56:47.612Z,60.00
2018-06-14T16:59:52.000Z,60.50
2018-06-14T17:02:56.431Z,62.50
2018-06-14T17:06:00.780Z,62.00
2018-06-14T17:09:07.389Z,61.50
2018-06-14T17:12:11.666Z,62.20
2018-06-14T17:15:16.796Z,62.80
2018-06-14T17:18:22.159Z,62.10
2018-06-14T17:24:31.428Z,64.10
2018-06-14T17:27:36.727Z,64.20
2018-06-14T17:30:40.983Z,64.80
2018-06-14T17:33:45.348Z,64.50
2018-06-14T17:36:49.709Z,66.20
2018-06-14T17:39:54.744Z,66.10
2018-06-14T17:42:59.047Z,66.00
2018-06-14T17:46:03.301Z,66.40
2018-06-14T17:49:07.569Z,67.20
2018-06-14T17:52:11.932Z,67.10
2018-06-14T17:55:16.814Z,67.80
2018-06-14T17:58:21.707Z,68.20
2018-06-14T18:01:26.241Z,68.00
2018-06-14T18:04:30.919Z,68.80
2018-06-14T18:07:36.042Z,68.90
2018-06-14T18:10:39.984Z,69.70
2018-06-14T18:13:44.253Z,70.10
2018-06-14T18:16:48.915Z,70.10
2018-06-14T18:19:53.275Z,71.00
2018-06-14T18:22:58.484Z,71.80
2018-06-14T18:26:02.744Z,72.30
2018-06-14T18:29:07.064Z,72.80
2018-06-14T18:32:13.080Z,72.80
2018-06-14T18:35:18.790Z,73.30
2018-06-14T18:38:23.136Z,74.30
2018-06-14T18:41:28.618Z,73.50
2018-06-14T18:44:34.177Z,74.50
2018-06-14T18:47:39.256Z,74.40
2018-06-14T18:50:44.344Z,75.40
2018-06-14T18:53:48.687Z,76.30
2018-06-14T18:56:53.052Z,76.10
2018-06-14T18:59:57.507Z,77.60
2018-06-14T19:03:01.784Z,76.70
2018-06-14T19:06:06.272Z,79.00
2018-06-14T19:09:11.433Z,77.90
2018-06-14T19:12:15.728Z,78.40
2018-06-14T19:15:20.835Z,79.50
2018-06-14T19:18:25.064Z,79.20
2018-06-14T19:21:30.164Z,79.60
2018-06-14T19:24:39.979Z,79.70
2018-06-14T19:27:46.069Z,80.00
2018-06-14T19:30:50.617Z,81.40
2018-06-14T19:33:54.965Z,82.50
2018-06-14T19:36:59.238Z,82.00
2018-06-14T19:43:07.747Z,85.00
2018-06-14T19:46:12.783Z,84.60
2018-06-14T19:49:18.532Z,84.30
2018-06-14T19:52:22.973Z,84.60
2018-06-14T19:58:33.307Z,86.80
2018-06-14T20:01:41.016Z,86.70
2018-06-14T20:04:45.705Z,87.90
2018-06-14T20:07:49.976Z,87.30
2018-06-14T20:10:54.285Z,86.60
2018-06-14T20:13:58.803Z,88.10
2018-06-14T20:17:03.641Z,88.10
2018-06-14T20:20:09.203Z,87.60
2018-06-14T20:23:13.866Z,88.20
2018-06-14T20:26:19.293Z,89.40
2018-06-14T20:29:23.876Z,87.50
2018-06-14T20:32:28.206Z,87.70
2018-06-14T20:35:32.892Z,88.00
2018-06-14T20:38:37.061Z,88.80
2018-06-14T20:41:41.922Z,90.20
2018-06-14T20:44:46.262Z,89.70
2018-06-14T20:47:50.498Z,89.50
2018-06-14T20:50:54.805Z,88.60
2018-06-14T20:53:59.151Z,90.30
2018-06-14T20:57:03.434Z,90.50
2018-06-14T21:00:07.704Z,88.50
2018-06-14T21:03:12.250Z,88.80
2018-06-14T21:06:16.596Z,90.00
2018-06-14T21:09:21.175Z,89.80
2018-06-14T21:12:26.050Z,90.70
2018-06-14T21:15:30.383Z,90.00
2018-06-14T21:18:34.925Z,90.20
2018-06-14T21:21:40.381Z,90.40
2018-06-14T21:27:48.470Z,89.20
2018-06-14T21:30:53.316Z,89.10
2018-06-14T21:33:57.731Z,89.50
2018-06-14T21:37:02.034Z,89.30
2018-06-14T21:40:06.384Z,90.00
2018-06-14T21:43:10.618Z,90.40
2018-06-14T21:46:16.782Z,89.00
2018-06-14T21:49:21.111Z,89.70
2018-06-14T21:52:26.756Z,88.80
2018-06-14T21:55:31.018Z,88.20
2018-06-14T21:58:35.648Z,88.40
2018-06-14T22:01:40.068Z,87.90
2018-06-14T22:04:44.333Z,88.70
2018-06-14T22:07:48.987Z,89.30
2018-06-14T22:10:54.594Z,89.70
2018-06-14T22:13:59.126Z,88.00
2018-06-14T22:17:03.475Z,87.60
2018-06-14T22:20:07.913Z,87.60
2018-06-14T22:23:12.205Z,88.20
2018-06-14T22:26:17.184Z,89.30
2018-06-14T22:29:21.842Z,90.00
2018-06-14T22:32:26.161Z,90.00
2018-06-14T22:35:30.963Z,90.10
2018-06-14T22:38:35.550Z,90.70
2018-06-14T22:41:39.802Z,93.70
2018-06-14T22:44:44.765Z,97.40
2018-06-14T22:47:49.084Z,99.30
2018-06-14T22:51:05.858Z,99.90
2018-06-14T22:54:10.164Z,99.90
2018-06-14T22:57:14.577Z,99.90
2018-06-14T23:02:33.500Z,99.90
2018-06-14T23:05:38.717Z,99.90
2018-06-14T23:08:43.993Z,99.90
2018-06-14T23:11:48.383Z,99.90
2018-06-14T23:14:52.693Z,99.90
2018-06-14T23:17:57.430Z,99.90
2018-06-14T23:21:02.773Z,99.90
2018-06-14T23:24:07.467Z,99.90
2018-06-14T23:27:12.213Z,99.90
2018-06-14T23:30:16.780Z,99.90
2018-06-14T23:33:23.643Z,99.90
2018-06-14T23:36:32.992Z,99.90
2018-06-14T23:39:37.824Z,99.90
2018-06-14T23:42:42.605Z,99.90
2018-06-14T23:45:48.010Z,99.90
2018-06-14T23:48:53.022Z,99.90
2018-06-14T23:51:57.513Z,99.90
2018-06-14T23:55:01.900Z,99.90
2018-06-14T23:58:06.889Z,99.90
